createdAt,value
2019-05-18T00:00:59.349Z,99.90
2019-05-18T00:03:28.696Z,99.90
2019-05-18T00:05:58.051Z,99.90
2019-05-18T00:08:27.387Z,99.90
2019-05-18T00:10:56.755Z,99.90
2019-05-18T00:13:26.186Z,99.90
2019-05-18T00:15:55.583Z,99.90
2019-05-18T00:18:25.074Z,99.90
2019-05-18T00:20:54.449Z,99.90
2019-05-18T00:23:23.774Z,99.90
2019-05-18T00:25:53.085Z,99.90
2019-05-18T00:28:22.492Z,99.90
2019-05-18T00:30:51.820Z,99.90
2019-05-18T00:33:21.157Z,99.90
2019-05-18T00:35:51.621Z,99.90
2019-05-18T00:38:20.947Z,99.90
2019-05-18T00:40:50.288Z,99.90
2019-05-18T00:43:19.639Z,99.90
2019-05-18T00:45:49.062Z,99.90
2019-05-18T00:48:18.384Z,99.90
2019-05-18T00:50:47.737Z,99.90
2019-05-18T00:53:17.135Z,99.90
2019-05-18T00:55:46.541Z,99.90
2019-05-18T00:58:15.904Z,99.90
2019-05-18T01:00:45.587Z,99.90
2019-05-18T01:03:14.944Z,99.90
2019-05-18T01:05:44.235Z,99.90
2019-05-18T01:08:13.648Z,99.90
2019-05-18T01:10:44.021Z,99.90
2019-05-18T01:13:13.350Z,99.90
2019-05-18T01:15:42.653Z,99.90
2019-05-18T01:18:12.086Z,99.90
2019-05-18T01:20:41.625Z,99.90
2019-05-18T01:23:11.074Z,99.90
2019-05-18T01:25:40.412Z,99.90
2019-05-18T01:28:09.855Z,99.90
2019-05-18T01:30:39.238Z,99.90
2019-05-18T01:33:08.545Z,99.90
2019-05-18T01:35:37.876Z,99.90
2019-05-18T01:38:07.243Z,99.90
2019-05-18T01:40:36.570Z,99.90
2019-05-18T01:43:05.952Z,99.90
2019-05-18T01:45:35.308Z,99.90
2019-05-18T01:48:13.205Z,99.90
2019-05-18T01:50:54.671Z,99.90
2019-05-18T01:53:24.007Z,99.90
2019-05-18T01:55:53.345Z,99.90
2019-05-18T01:58:22.642Z,99.90
2019-05-18T02:00:51.973Z,99.90
2019-05-18T02:03:21.354Z,99.90
2019-05-18T02:05:50.783Z,99.90
2019-05-18T02:08:20.087Z,99.90
2019-05-18T02:10:49.428Z,99.90
2019-05-18T02:13:18.799Z,99.90
2019-05-18T02:15:48.175Z,99.90
2019-05-18T02:18:28.832Z,99.90
2019-05-18T02:20:48.595Z,99.90
2019-05-18T02:23:18.008Z,99.90
2019-05-18T02:25:47.347Z,99.90
2019-05-18T02:28:16.659Z,99.90
2019-05-18T02:30:46.103Z,99.90
2019-05-18T02:33:15.403Z,99.90
2019-05-18T02:35:44.691Z,99.90
2019-05-18T02:38:17.181Z,99.90
2019-05-18T02:40:48.093Z,99.90
2019-05-18T02:43:17.771Z,99.90
2019-05-18T02:45:47.044Z,99.90
2019-05-18T02:48:16.466Z,99.90
2019-05-18T02:50:45.794Z,99.90
2019-05-18T02:53:16.949Z,99.90
2019-05-18T02:55:46.362Z,99.90
2019-05-18T02:58:15.813Z,99.90
2019-05-18T03:00:45.245Z,99.90
2019-05-18T03:03:14.579Z,99.90
2019-05-18T03:05:44.830Z,99.90
2019-05-18T03:08:14.230Z,99.90
2019-05-18T03:10:43.633Z,99.90
2019-05-18T03:13:13.202Z,99.90
2019-05-18T03:15:42.522Z,99.90
2019-05-18T03:18:11.914Z,99.90
2019-05-18T03:20:41.342Z,99.90
2019-05-18T03:23:10.735Z,99.90
2019-05-18T03:25:40.138Z,99.90
2019-05-18T03:28:09.478Z,99.90
2019-05-18T03:30:38.860Z,99.90
2019-05-18T03:33:08.184Z,99.90
2019-05-18T03:35:37.521Z,99.90
2019-05-18T03:38:06.878Z,99.90
2019-05-18T03:40:36.237Z,99.90
2019-05-18T03:43:05.961Z,99.90
2019-05-18T03:45:35.361Z,99.90
2019-05-18T03:48:04.848Z,99.90
2019-05-18T03:50:34.180Z,99.90
2019-05-18T03:53:03.495Z,99.90
2019-05-18T03:55:33.298Z,99.90
2019-05-18T03:58:02.679Z,99.90
2019-05-18T04:00:31.983Z,99.90
2019-05-18T04:03:01.354Z,99.90
2019-05-18T04:05:30.912Z,99.90
2019-05-18T04:08:00.207Z,99.90
2019-05-18T04:10:29.563Z,99.90
2019-05-18T04:12:58.878Z,99.90
2019-05-18T04:15:28.204Z,99.90
2019-05-18T04:17:57.492Z,99.90
2019-05-18T04:20:26.998Z,99.90
2019-05-18T04:22:56.927Z,99.90
2019-05-18T04:25:26.217Z,99.90
2019-05-18T04:27:55.650Z,99.90
2019-05-18T04:30:25.111Z,99.90
2019-05-18T04:32:54.664Z,99.90
2019-05-18T04:35:23.965Z,99.90
2019-05-18T04:37:53.352Z,99.90
2019-05-18T04:40:22.789Z,99.90
2019-05-18T04:42:52.130Z,99.90
2019-05-18T04:45:23.484Z,99.90
2019-05-18T04:47:54.417Z,99.90
2019-05-18T04:50:23.822Z,99.90
2019-05-18T04:52:53.184Z,99.90
2019-05-18T04:55:22.642Z,99.90
2019-05-18T04:57:52.058Z,99.90
2019-05-18T05:00:21.362Z,99.90
2019-05-18T05:02:50.768Z,99.90
2019-05-18T05:05:20.116Z,99.90
2019-05-18T05:07:49.577Z,99.90
2019-05-18T05:10:19.028Z,99.90
2019-05-18T05:12:48.335Z,99.90
2019-05-18T05:15:17.765Z,99.90
2019-05-18T05:17:47.147Z,99.90
2019-05-18T05:20:19.828Z,99.90
2019-05-18T05:22:47.599Z,99.90
2019-05-18T05:25:16.957Z,99.90
2019-05-18T05:27:46.269Z,99.90
2019-05-18T05:30:15.940Z,99.90
2019-05-18T05:32:45.239Z,99.90
2019-05-18T05:35:14.679Z,99.90
2019-05-18T05:37:44.044Z,99.90
2019-05-18T05:40:13.416Z,99.90
2019-05-18T05:42:42.858Z,99.90
2019-05-18T05:45:12.416Z,99.90
2019-05-18T05:47:41.811Z,99.90
2019-05-18T05:50:11.877Z,99.90
2019-05-18T05:52:41.418Z,99.90
2019-05-18T05:55:11.287Z,99.90
2019-05-18T05:57:40.675Z,99.90
2019-05-18T06:00:11.011Z,99.90
2019-05-18T06:02:59.493Z,99.90
2019-05-18T06:05:28.942Z,99.90
2019-05-18T06:07:58.363Z,99.90
2019-05-18T06:10:27.821Z,99.90
2019-05-18T06:12:57.245Z,99.90
2019-05-18T06:15:26.616Z,99.90
2019-05-18T06:17:56.002Z,99.90
2019-05-18T06:20:25.586Z,99.90
2019-05-18T06:22:55.034Z,99.90
2019-05-18T06:25:24.463Z,99.90
2019-05-18T06:27:53.880Z,99.90
2019-05-18T06:30:23.423Z,99.90
2019-05-18T06:32:52.842Z,99.90
2019-05-18T06:35:22.344Z,99.90
2019-05-18T06:37:51.744Z,99.90
2019-05-18T06:40:21.283Z,99.90
2019-05-18T06:42:50.813Z,99.90
2019-05-18T06:45:20.484Z,99.90
2019-05-18T06:47:49.961Z,99.90
2019-05-18T06:50:24.350Z,99.90
2019-05-18T06:52:53.792Z,99.90
2019-05-18T06:55:23.193Z,99.90
2019-05-18T06:57:52.749Z,99.90
2019-05-18T07:00:22.381Z,99.90
2019-05-18T07:02:51.876Z,99.90
2019-05-18T07:05:21.891Z,99.90
2019-05-18T07:07:51.486Z,99.90
2019-05-18T07:10:20.828Z,99.90
2019-05-18T07:12:50.230Z,99.90
2019-05-18T07:15:20.015Z,98.80
2019-05-18T07:17:50.839Z,98.80
2019-05-18T07:20:25.635Z,97.20
2019-05-18T07:22:55.080Z,94.70
2019-05-18T07:25:28.909Z,93.40
2019-05-18T07:27:58.496Z,90.90
2019-05-18T07:30:29.705Z,89.40
2019-05-18T07:32:59.140Z,88.30
2019-05-18T07:35:28.583Z,85.00
2019-05-18T07:37:58.063Z,81.50
2019-05-18T07:40:27.552Z,80.50
2019-05-18T07:42:58.905Z,77.20
2019-05-18T07:45:28.067Z,75.20
2019-05-18T07:47:57.531Z,72.90
2019-05-18T07:50:26.972Z,70.40
2019-05-18T07:52:57.873Z,68.90
2019-05-18T07:55:27.202Z,67.10
2019-05-18T07:57:56.580Z,64.90
2019-05-18T08:00:26.207Z,63.00
2019-05-18T08:02:55.632Z,59.20
2019-05-18T08:05:25.341Z,57.70
2019-05-18T08:07:54.805Z,56.80
2019-05-18T08:10:37.567Z,57.80
2019-05-18T08:13:07.544Z,56.90
2019-05-18T08:15:39.346Z,55.10
2019-05-18T08:18:08.695Z,53.30
2019-05-18T08:20:38.043Z,53.30
2019-05-18T08:23:07.430Z,53.40
2019-05-18T08:25:36.890Z,51.60
2019-05-18T08:28:06.232Z,51.80
2019-05-18T08:30:35.685Z,52.20
2019-05-18T08:33:06.476Z,52.40
2019-05-18T08:35:35.917Z,50.90
2019-05-18T08:38:05.315Z,52.50
2019-05-18T08:40:34.852Z,51.30
2019-05-18T08:43:06.041Z,52.10
2019-05-18T08:45:35.436Z,54.40
2019-05-18T08:48:04.900Z,53.60
2019-05-18T08:50:34.324Z,52.30
2019-05-18T08:53:04.597Z,50.90
2019-05-18T08:55:34.059Z,51.10
2019-05-18T08:58:05.443Z,52.20
2019-05-18T09:00:35.778Z,50.40
2019-05-18T09:03:05.198Z,47.60
2019-05-18T09:05:34.616Z,46.70
2019-05-18T09:08:04.049Z,47.50
2019-05-18T09:10:33.461Z,46.40
2019-05-18T09:13:04.839Z,46.20
2019-05-18T09:15:34.184Z,48.80
2019-05-18T09:18:05.025Z,48.30
2019-05-18T09:20:34.713Z,47.60
2019-05-18T09:23:04.496Z,45.70
2019-05-18T09:25:34.307Z,45.50
2019-05-18T09:28:03.704Z,45.00
2019-05-18T09:30:33.107Z,44.20
2019-05-18T09:33:02.863Z,46.20
2019-05-18T09:35:32.183Z,46.80
2019-05-18T09:38:01.616Z,45.10
2019-05-18T09:40:31.802Z,44.70
2019-05-18T09:43:01.265Z,44.80
2019-05-18T09:45:31.781Z,43.60
2019-05-18T09:48:01.264Z,43.40
2019-05-18T09:50:30.728Z,44.00
2019-05-18T09:53:00.152Z,46.00
2019-05-18T09:55:31.304Z,49.50
2019-05-18T09:58:00.782Z,50.70
2019-05-18T10:00:38.264Z,52.30
2019-05-18T10:03:02.979Z,52.10
2019-05-18T10:05:32.307Z,52.60
2019-05-18T10:08:01.665Z,52.80
2019-05-18T10:10:33.607Z,51.00
2019-05-18T10:13:02.156Z,50.10
2019-05-18T10:15:31.492Z,49.00
2019-05-18T10:18:00.924Z,46.40
2019-05-18T10:20:30.355Z,44.70
2019-05-18T10:23:12.456Z,45.90
2019-05-18T10:25:31.057Z,46.50
2019-05-18T10:28:00.395Z,47.00
2019-05-18T10:30:29.830Z,49.00
2019-05-18T10:32:59.250Z,49.90
2019-05-18T10:35:28.557Z,51.10
2019-05-18T10:37:57.920Z,50.20
2019-05-18T10:40:32.222Z,49.50
2019-05-18T10:43:01.687Z,48.00
2019-05-18T10:45:31.006Z,47.20
2019-05-18T10:48:01.468Z,45.50
2019-05-18T10:50:30.978Z,45.40
2019-05-18T10:53:03.420Z,45.20
2019-05-18T10:55:36.083Z,45.70
2019-05-18T10:58:05.563Z,46.40
2019-05-18T11:00:34.939Z,45.40
2019-05-18T11:03:04.319Z,45.30
2019-05-18T11:05:33.742Z,48.60
2019-05-18T11:08:05.333Z,50.40
2019-05-18T11:10:34.747Z,50.20
2019-05-18T11:13:04.048Z,47.80
2019-05-18T11:15:33.352Z,47.60
2019-05-18T11:18:02.798Z,47.50
2019-05-18T11:20:33.090Z,45.20
2019-05-18T11:23:02.628Z,47.00
2019-05-18T11:25:32.004Z,47.40
2019-05-18T11:28:01.428Z,46.70
2019-05-18T11:30:31.082Z,44.50
2019-05-18T11:33:00.398Z,44.20
2019-05-18T11:35:32.153Z,43.70
2019-05-18T11:38:01.575Z,44.30
2019-05-18T11:40:30.912Z,43.50
2019-05-18T11:43:00.331Z,44.50
2019-05-18T11:45:29.892Z,43.00
2019-05-18T11:47:59.378Z,44.70
2019-05-18T11:50:28.887Z,45.00
2019-05-18T11:52:58.232Z,42.60
2019-05-18T11:55:27.753Z,41.90
2019-05-18T11:57:57.263Z,40.00
2019-05-18T12:00:31.500Z,40.20
2019-05-18T12:03:00.373Z,42.40
2019-05-18T12:05:29.826Z,44.50
2019-05-18T12:07:59.230Z,46.30
2019-05-18T12:10:28.603Z,46.30
2019-05-18T12:12:57.985Z,46.10
2019-05-18T12:15:27.557Z,47.30
2019-05-18T12:17:56.972Z,46.90
2019-05-18T12:20:26.427Z,49.20
2019-05-18T12:22:55.827Z,49.40
2019-05-18T12:25:25.245Z,47.50
2019-05-18T12:27:56.169Z,47.60
2019-05-18T12:30:25.937Z,47.70
2019-05-18T12:32:55.362Z,47.00
2019-05-18T12:35:28.334Z,46.70
2019-05-18T12:37:58.850Z,47.20
2019-05-18T12:40:28.355Z,46.50
2019-05-18T12:42:59.155Z,47.20
2019-05-18T12:45:29.257Z,47.90
2019-05-18T12:47:59.069Z,46.50
2019-05-18T12:50:30.431Z,45.50
2019-05-18T12:53:02.616Z,44.80
2019-05-18T12:55:31.636Z,45.60
2019-05-18T12:58:01.334Z,47.40
2019-05-18T13:00:30.941Z,48.80
2019-05-18T13:03:06.498Z,48.00
2019-05-18T13:05:35.908Z,47.60
2019-05-18T13:08:05.248Z,48.00
2019-05-18T13:10:34.677Z,47.40
2019-05-18T13:13:04.169Z,48.30
2019-05-18T13:15:33.566Z,49.60
2019-05-18T13:18:35.354Z,49.90
2019-05-18T13:21:07.891Z,50.60
2019-05-18T13:23:37.281Z,51.10
2019-05-18T13:26:06.691Z,49.90
2019-05-18T13:28:36.139Z,49.10
2019-05-18T13:31:06.886Z,48.20
2019-05-18T13:33:36.255Z,48.10
2019-05-18T13:36:05.591Z,47.00
2019-05-18T13:38:35.005Z,47.30
2019-05-18T13:41:04.575Z,47.30
2019-05-18T13:43:34.154Z,46.10
2019-05-18T13:46:03.659Z,47.10
2019-05-18T13:48:33.197Z,47.70
2019-05-18T13:51:02.659Z,46.50
2019-05-18T13:53:32.166Z,45.40
2019-05-18T13:56:01.780Z,45.50
2019-05-18T13:58:31.265Z,46.40
2019-05-18T14:01:00.699Z,47.00
2019-05-18T14:03:30.210Z,46.60
2019-05-18T14:06:01.573Z,47.70
2019-05-18T14:08:30.841Z,47.80
2019-05-18T14:11:00.391Z,48.10
2019-05-18T14:13:30.015Z,48.30
2019-05-18T14:15:59.646Z,48.30
2019-05-18T14:18:29.307Z,48.50
2019-05-18T14:21:00.278Z,47.70
2019-05-18T14:23:29.942Z,47.90
2019-05-18T14:25:59.375Z,48.50
2019-05-18T14:28:28.847Z,49.30
2019-05-18T14:30:58.248Z,50.50
2019-05-18T14:33:27.746Z,50.60
2019-05-18T14:35:57.273Z,50.10
2019-05-18T14:38:26.635Z,48.70
2019-05-18T14:40:57.503Z,47.80
2019-05-18T14:43:28.338Z,47.50
2019-05-18T14:45:57.770Z,47.70
2019-05-18T14:48:27.223Z,47.00
2019-05-18T14:50:56.519Z,47.00
2019-05-18T14:53:29.112Z,46.60
2019-05-18T14:55:58.639Z,46.90
2019-05-18T14:58:28.381Z,47.20
2019-05-18T15:00:57.882Z,47.00
2019-05-18T15:03:27.330Z,46.90
2019-05-18T15:05:56.769Z,46.70
2019-05-18T15:08:26.593Z,46.60
2019-05-18T15:10:55.955Z,46.90
2019-05-18T15:13:25.440Z,47.10
2019-05-18T15:15:54.949Z,47.60
2019-05-18T15:18:24.413Z,47.00
2019-05-18T15:20:53.905Z,48.10
2019-05-18T15:23:23.286Z,49.40
2019-05-18T15:25:52.739Z,50.40
2019-05-18T15:28:22.043Z,51.30
2019-05-18T15:30:51.458Z,51.50
2019-05-18T15:33:20.798Z,51.50
2019-05-18T15:35:50.232Z,52.30
2019-05-18T15:38:19.632Z,52.80
2019-05-18T15:40:49.055Z,53.40
2019-05-18T15:43:18.443Z,53.60
2019-05-18T15:45:47.915Z,53.90
2019-05-18T15:48:17.337Z,54.70
2019-05-18T15:50:46.731Z,54.50
2019-05-18T15:53:16.130Z,55.00
2019-05-18T15:55:47.542Z,55.10
2019-05-18T15:58:16.586Z,55.00
2019-05-18T16:00:45.925Z,55.20
2019-05-18T16:03:15.324Z,54.90
2019-05-18T16:05:44.743Z,55.20
2019-05-18T16:08:14.361Z,56.30
2019-05-18T16:10:43.789Z,55.90
2019-05-18T16:13:13.135Z,55.50
2019-05-18T16:15:42.585Z,55.90
2019-05-18T16:18:11.970Z,56.10
2019-05-18T16:20:41.439Z,56.40
2019-05-18T16:23:10.823Z,56.50
2019-05-18T16:25:40.439Z,56.80
2019-05-18T16:28:09.979Z,57.10
2019-05-18T16:30:39.590Z,57.40
2019-05-18T16:33:09.003Z,57.60
2019-05-18T16:35:38.388Z,57.70
2019-05-18T16:38:07.832Z,58.30
2019-05-18T16:40:38.272Z,58.00
2019-05-18T16:43:07.715Z,58.40
2019-05-18T16:45:37.048Z,58.20
2019-05-18T16:48:06.556Z,58.30
2019-05-18T16:50:35.912Z,58.70
2019-05-18T16:53:05.450Z,58.70
2019-05-18T16:55:34.763Z,58.50
2019-05-18T16:58:04.178Z,58.50
2019-05-18T17:00:33.551Z,58.30
2019-05-18T17:03:03.071Z,58.30
2019-05-18T17:05:32.429Z,58.60
2019-05-18T17:08:01.860Z,58.70
2019-05-18T17:10:31.206Z,58.90
2019-05-18T17:13:00.611Z,59.10
2019-05-18T17:15:30.018Z,59.10
2019-05-18T17:17:59.553Z,59.50
2019-05-18T17:20:28.871Z,59.50
2019-05-18T17:22:58.389Z,59.10
2019-05-18T17:25:27.722Z,59.50
2019-05-18T17:27:57.084Z,59.40
2019-05-18T17:30:27.039Z,59.20
2019-05-18T17:32:56.338Z,59.70
2019-05-18T17:35:25.742Z,59.90
2019-05-18T17:37:55.157Z,60.10
2019-05-18T17:40:24.573Z,60.10
2019-05-18T17:42:53.944Z,60.60
2019-05-18T17:45:23.529Z,60.60
2019-05-18T17:47:52.829Z,60.90
2019-05-18T17:50:22.254Z,60.60
2019-05-18T17:52:51.799Z,60.60
2019-05-18T17:55:21.167Z,60.60
2019-05-18T17:57:50.594Z,60.60
2019-05-18T18:00:20.412Z,61.00
2019-05-18T18:02:49.784Z,61.00
2019-05-18T18:05:19.239Z,61.20
2019-05-18T18:07:48.589Z,61.10
2019-05-18T18:10:18.129Z,61.40
2019-05-18T18:12:47.506Z,61.40
2019-05-18T18:15:17.453Z,61.50
2019-05-18T18:17:46.866Z,61.50
2019-05-18T18:20:16.723Z,61.60
2019-05-18T18:22:46.260Z,61.90
2019-05-18T18:25:15.854Z,62.10
2019-05-18T18:27:45.295Z,61.80
2019-05-18T18:30:15.649Z,62.10
2019-05-18T18:32:45.184Z,62.30
2019-05-18T18:35:14.903Z,62.50
2019-05-18T18:37:44.313Z,63.00
2019-05-18T18:40:13.900Z,63.20
2019-05-18T18:42:43.328Z,63.70
2019-05-18T18:45:13.073Z,64.00
2019-05-18T18:47:42.509Z,64.60
2019-05-18T18:50:12.177Z,64.20
2019-05-18T18:52:41.615Z,64.40
2019-05-18T18:55:11.736Z,64.80
2019-05-18T18:57:42.212Z,64.50
2019-05-18T19:00:12.408Z,64.80
2019-05-18T19:02:41.843Z,65.30
2019-05-18T19:05:11.576Z,65.70
2019-05-18T19:07:42.030Z,66.20
2019-05-18T19:10:11.985Z,66.40
2019-05-18T19:12:41.416Z,66.70
2019-05-18T19:15:11.760Z,67.00
2019-05-18T19:17:41.182Z,67.10
2019-05-18T19:20:12.303Z,68.20
2019-05-18T19:22:41.614Z,68.80
2019-05-18T19:25:11.523Z,68.40
2019-05-18T19:27:53.759Z,68.60
2019-05-18T19:30:12.212Z,69.70
2019-05-18T19:32:41.590Z,69.70
2019-05-18T19:35:11.153Z,70.30
2019-05-18T19:37:40.611Z,70.20
2019-05-18T19:40:10.138Z,70.40
2019-05-18T19:42:39.624Z,71.20
2019-05-18T19:45:10.477Z,71.70
2019-05-18T19:47:39.947Z,71.90
2019-05-18T19:50:10.325Z,72.20
2019-05-18T19:52:39.799Z,72.40
2019-05-18T19:55:09.734Z,72.70
2019-05-18T19:57:39.223Z,73.40
2019-05-18T20:00:10.382Z,73.40
2019-05-18T20:02:39.816Z,75.20
2019-05-18T20:05:09.890Z,76.60
2019-05-18T20:07:39.390Z,76.20
2019-05-18T20:10:10.069Z,76.50
2019-05-18T20:12:44.011Z,78.30
2019-05-18T20:15:14.706Z,79.40
2019-05-18T20:17:44.145Z,79.00
2019-05-18T20:20:13.647Z,85.30
2019-05-18T20:22:43.100Z,83.80
2019-05-18T20:25:13.476Z,86.00
2019-05-18T20:27:43.037Z,87.50
2019-05-18T20:30:13.189Z,85.90
2019-05-18T20:32:42.668Z,87.60
2019-05-18T20:35:12.403Z,86.70
2019-05-18T20:37:41.946Z,88.20
2019-05-18T20:40:12.146Z,88.10
2019-05-18T20:42:41.609Z,88.50
2019-05-18T20:45:11.283Z,89.00
2019-05-18T20:47:40.777Z,88.60
2019-05-18T20:50:10.397Z,89.80
2019-05-18T20:52:39.791Z,90.30
2019-05-18T20:55:09.366Z,90.30
2019-05-18T20:57:38.761Z,90.30
2019-05-18T21:00:09.072Z,90.40
2019-05-18T21:02:38.508Z,90.70
2019-05-18T21:05:09.665Z,90.70
2019-05-18T21:07:39.077Z,91.20
2019-05-18T21:10:09.274Z,91.30
2019-05-18T21:12:40.202Z,92.10
2019-05-18T21:15:10.406Z,92.40
2019-05-18T21:17:40.100Z,93.10
2019-05-18T21:20:09.803Z,93.90
2019-05-18T21:22:39.232Z,94.60
2019-05-18T21:25:08.937Z,95.10
2019-05-18T21:27:38.266Z,96.10
2019-05-18T21:30:08.160Z,96.70
2019-05-18T21:32:37.502Z,96.90
2019-05-18T21:35:08.453Z,97.50
2019-05-18T21:37:37.853Z,97.90
2019-05-18T21:40:07.913Z,98.50
2019-05-18T21:42:37.435Z,98.70
2019-05-18T21:45:07.118Z,99.20
2019-05-18T21:47:36.534Z,99.70
2019-05-18T21:50:06.423Z,99.90
2019-05-18T21:52:35.975Z,99.90
2019-05-18T21:55:05.708Z,99.90
2019-05-18T21:57:35.157Z,99.90
2019-05-18T22:00:05.469Z,99.90
2019-05-18T22:02:34.862Z,99.90
2019-05-18T22:05:04.497Z,99.90
2019-05-18T22:07:35.559Z,99.90
2019-05-18T22:10:06.536Z,99.90
2019-05-18T22:12:36.011Z,99.90
2019-05-18T22:15:05.901Z,99.90
2019-05-18T22:17:38.724Z,99.90
2019-05-18T22:20:08.208Z,99.90
2019-05-18T22:22:39.818Z,99.90
2019-05-18T22:25:10.842Z,99.90
2019-05-18T22:27:40.195Z,99.90
2019-05-18T22:30:09.512Z,99.90
2019-05-18T22:32:38.916Z,99.90
2019-05-18T22:35:08.312Z,99.90
2019-05-18T22:37:37.711Z,99.90
2019-05-18T22:40:07.082Z,99.90
2019-05-18T22:42:36.482Z,99.90
2019-05-18T22:45:05.888Z,99.90
2019-05-18T22:47:38.452Z,99.90
2019-05-18T22:50:07.528Z,99.90
2019-05-18T22:52:37.110Z,99.90
2019-05-18T22:55:06.472Z,99.90
2019-05-18T22:57:35.873Z,99.90
2019-05-18T23:00:07.037Z,99.90
2019-05-18T23:02:36.480Z,99.90
2019-05-18T23:05:06.325Z,99.90
2019-05-18T23:07:35.839Z,99.90
2019-05-18T23:10:05.614Z,99.90
2019-05-18T23:12:35.048Z,99.90
2019-05-18T23:15:04.636Z,99.90
2019-05-18T23:17:34.123Z,99.90
2019-05-18T23:20:08.436Z,99.90
2019-05-18T23:22:37.868Z,99.90
2019-05-18T23:25:07.373Z,99.90
2019-05-18T23:27:36.809Z,99.90
2019-05-18T23:30:06.239Z,99.90
2019-05-18T23:32:35.648Z,99.90
2019-05-18T23:35:04.928Z,99.90
2019-05-18T23:37:34.331Z,99.90
2019-05-18T23:40:04.125Z,99.90
2019-05-18T23:42:33.530Z,99.90
2019-05-18T23:45:03.181Z,99.90
2019-05-18T23:47:32.522Z,99.90
2019-05-18T23:50:02.053Z,99.90
2019-05-18T23:52:31.447Z,99.90
2019-05-18T23:55:00.910Z,99.90
2019-05-18T23:57:30.229Z,99.90
